createdAt,value
2022-11-28T00:01:44.267Z,8.70
2022-11-28T00:04:13.121Z,7.33
2022-11-28T00:06:45.909Z,8.63
2022-11-28T00:09:14.890Z,8.43
2022-11-28T00:11:45.138Z,7.63
2022-11-28T00:14:13.587Z,6.93
2022-11-28T00:16:42.087Z,7.53
2022-11-28T00:19:12.141Z,7.47
2022-11-28T00:21:40.621Z,8.57
2022-11-28T00:24:09.795Z,8.27
2022-11-28T00:26:42.300Z,8.23
2022-11-28T00:29:11.405Z,8.23
2022-11-28T00:31:42.765Z,7.60
2022-11-28T00:34:15.173Z,8.03
2022-11-28T00:36:47.543Z,7.10
2022-11-28T00:39:16.918Z,6.97
2022-11-28T00:41:45.653Z,7.20
2022-11-28T00:44:14.265Z,7.80
2022-11-28T00:46:42.844Z,9.63
2022-11-28T00:49:10.681Z,10.17
2022-11-28T00:51:39.270Z,10.03
2022-11-28T00:54:07.590Z,9.00
2022-11-28T00:56:38.915Z,7.97
2022-11-28T00:59:07.614Z,7.30
2022-11-28T01:01:41.557Z,7.70
2022-11-28T01:06:48.499Z,7.67
2022-11-28T01:09:23.131Z,7.80
2022-11-28T01:11:53.555Z,8.63
2022-11-28T01:14:26.318Z,8.47
2022-11-28T01:16:54.393Z,7.27
2022-11-28T01:19:22.213Z,8.83
2022-11-28T01:21:50.291Z,7.07
2022-11-28T01:24:18.555Z,6.57
2022-11-28T01:26:46.446Z,7.43
2022-11-28T01:29:14.411Z,7.30
2022-11-28T01:31:42.411Z,7.33
2022-11-28T01:34:10.282Z,7.80
2022-11-28T01:36:38.203Z,7.93
2022-11-28T01:39:06.940Z,7.57
2022-11-28T01:41:34.785Z,8.10
2022-11-28T01:44:27.890Z,10.00
2022-11-28T01:46:56.609Z,11.23
2022-11-28T01:49:33.809Z,8.30
2022-11-28T01:52:13.217Z,7.20
2022-11-28T01:54:44.972Z,16.57
2022-11-28T01:57:20.048Z,22.33
2022-11-28T02:00:13.152Z,17.10
2022-11-28T02:03:06.408Z,12.97
2022-11-28T02:05:34.250Z,7.60
2022-11-28T02:08:03.323Z,7.33
2022-11-28T02:10:52.855Z,7.43
2022-11-28T02:13:41.292Z,6.03
2022-11-28T02:16:39.163Z,7.07
2022-11-28T02:19:31.708Z,7.40
2022-11-28T02:22:16.952Z,6.80
2022-11-28T02:25:01.497Z,6.43
2022-11-28T02:28:00.341Z,6.50
2022-11-28T02:30:56.529Z,6.37
2022-11-28T02:33:43.332Z,6.83
2022-11-28T02:36:29.648Z,6.73
2022-11-28T02:39:09.815Z,6.93
2022-11-28T02:41:58.541Z,6.37
2022-11-28T02:44:43.580Z,6.87
2022-11-28T02:47:23.574Z,7.03
2022-11-28T02:50:08.773Z,6.40
2022-11-28T02:52:46.028Z,5.23
2022-11-28T02:55:16.238Z,6.47
2022-11-28T02:57:51.434Z,7.10
2022-11-28T03:00:33.035Z,6.43
2022-11-28T03:03:12.425Z,5.63
2022-11-28T03:05:51.592Z,6.27
2022-11-28T03:08:28.335Z,6.03
2022-11-28T03:11:23.020Z,6.47
2022-11-28T03:17:18.340Z,6.07
2022-11-28T03:20:06.359Z,7.43
2022-11-28T03:22:57.326Z,6.23
2022-11-28T03:25:47.944Z,6.20
2022-11-28T03:28:45.335Z,6.03
2022-11-28T03:31:20.532Z,6.77
2022-11-28T03:33:54.113Z,7.07
2022-11-28T03:36:50.681Z,6.22
2022-11-28T03:39:24.081Z,6.40
2022-11-28T03:42:02.663Z,6.60
2022-11-28T03:45:04.626Z,6.13
2022-11-28T03:47:40.417Z,6.77
2022-11-28T03:50:26.057Z,6.17
2022-11-28T03:53:02.262Z,6.10
2022-11-28T03:56:14.012Z,6.60
2022-11-28T03:59:04.157Z,7.30
2022-11-28T04:02:13.393Z,8.00
2022-11-28T04:04:53.069Z,7.00
2022-11-28T04:07:51.316Z,7.53
2022-11-28T04:10:48.554Z,6.30
2022-11-28T04:13:37.045Z,6.77
2022-11-28T04:16:53.579Z,5.80
2022-11-28T04:19:33.966Z,7.07
2022-11-28T04:22:18.811Z,6.50
2022-11-28T04:24:56.018Z,6.53
2022-11-28T04:27:33.436Z,6.67
2022-11-28T04:30:04.849Z,6.53
2022-11-28T04:32:36.387Z,6.70
2022-11-28T04:35:12.856Z,5.77
2022-11-28T04:37:44.816Z,7.03
2022-11-28T04:40:13.827Z,7.03
2022-11-28T04:42:53.114Z,6.43
2022-11-28T04:45:37.787Z,6.00
2022-11-28T04:48:07.252Z,6.83
2022-11-28T04:50:59.902Z,7.60
2022-11-28T04:54:00.181Z,6.47
2022-11-28T04:57:06.690Z,7.53
2022-11-28T04:59:34.655Z,6.40
2022-11-28T05:02:05.113Z,5.90
2022-11-28T05:04:36.960Z,6.00
2022-11-28T05:07:08.103Z,6.43
2022-11-28T05:09:36.452Z,6.07
2022-11-28T05:12:04.904Z,5.83
2022-11-28T05:14:32.832Z,6.53
2022-11-28T05:17:00.612Z,6.50
2022-11-28T05:19:28.334Z,7.60
2022-11-28T05:21:56.193Z,6.43
2022-11-28T05:24:27.952Z,6.83
2022-11-28T05:26:58.580Z,7.47
2022-11-28T05:29:26.380Z,7.13
2022-11-28T05:31:54.223Z,6.97
2022-11-28T05:34:22.320Z,8.70
2022-11-28T05:36:50.129Z,9.87
2022-11-28T05:39:18.017Z,8.00
2022-11-28T05:41:45.788Z,6.40
2022-11-28T05:44:13.514Z,6.70
2022-11-28T05:46:41.338Z,7.70
2022-11-28T05:49:09.269Z,7.10
2022-11-28T05:51:37.047Z,7.37
2022-11-28T05:54:06.817Z,6.93
2022-11-28T05:56:39.425Z,6.80
2022-11-28T05:59:09.976Z,7.80
2022-11-28T06:01:37.765Z,7.27
2022-11-28T06:04:05.574Z,7.10
2022-11-28T06:06:37.203Z,7.30
2022-11-28T06:09:06.204Z,6.60
2022-11-28T06:11:35.629Z,7.13
2022-11-28T06:14:03.871Z,8.87
2022-11-28T06:16:31.966Z,8.03
2022-11-28T06:19:03.651Z,8.27
2022-11-28T06:21:32.849Z,7.57
2022-11-28T06:24:00.948Z,8.13
2022-11-28T06:26:29.741Z,11.80
2022-11-28T06:28:58.129Z,10.87
2022-11-28T06:31:29.992Z,10.13
2022-11-28T06:33:58.887Z,7.80
2022-11-28T06:36:27.553Z,8.23
2022-11-28T06:38:55.335Z,7.80
2022-11-28T06:41:23.418Z,8.27
2022-11-28T06:43:51.196Z,9.10
2022-11-28T06:46:21.298Z,8.33
2022-11-28T06:48:51.757Z,8.17
2022-11-28T06:51:20.288Z,7.60
2022-11-28T06:53:48.675Z,8.20
2022-11-28T06:56:19.617Z,7.17
2022-11-28T06:58:53.255Z,7.27
2022-11-28T07:01:23.175Z,7.30
2022-11-28T07:03:51.841Z,6.67
2022-11-28T07:06:20.600Z,6.20
2022-11-28T07:08:50.324Z,8.57
2022-11-28T07:11:27.156Z,8.83
2022-11-28T07:13:56.144Z,7.60
2022-11-28T07:16:26.520Z,7.60
2022-11-28T07:18:55.603Z,7.40
2022-11-28T07:21:24.129Z,7.50
2022-11-28T07:23:52.125Z,6.50
2022-11-28T07:26:21.823Z,5.70
2022-11-28T07:28:51.339Z,4.87
2022-11-28T07:31:31.772Z,6.43
2022-11-28T07:34:03.661Z,5.17
2022-11-28T07:36:32.447Z,5.57
2022-11-28T07:39:03.048Z,5.40
2022-11-28T07:41:30.818Z,5.60
2022-11-28T07:44:01.723Z,7.73
2022-11-28T07:46:31.728Z,9.00
2022-11-28T07:48:59.923Z,7.53
2022-11-28T07:51:32.328Z,9.83
2022-11-28T07:54:01.599Z,10.37
2022-11-28T07:59:21.918Z,10.33
2022-11-28T08:01:49.825Z,9.17
2022-11-28T08:04:17.717Z,8.37
2022-11-28T08:06:45.580Z,5.73
2022-11-28T08:09:13.654Z,5.80
2022-11-28T08:11:41.901Z,7.23
2022-11-28T08:14:09.738Z,18.47
2022-11-28T08:16:41.272Z,9.40
2022-11-28T08:19:09.139Z,7.63
2022-11-28T08:21:37.467Z,9.70
2022-11-28T08:24:07.865Z,7.83
2022-11-28T08:26:36.760Z,7.93
2022-11-28T08:29:04.931Z,6.57
2022-11-28T08:31:36.789Z,6.83
2022-11-28T08:34:09.730Z,7.70
2022-11-28T08:36:37.781Z,7.03
2022-11-28T08:39:23.347Z,6.03
2022-11-28T08:41:54.282Z,5.60
2022-11-28T08:44:22.050Z,6.57
2022-11-28T08:46:49.804Z,4.67
2022-11-28T08:49:17.581Z,5.07
2022-11-28T08:51:45.759Z,6.40
2022-11-28T08:54:13.588Z,7.70
2022-11-28T08:56:41.431Z,6.87
2022-11-28T08:59:10.042Z,6.70
2022-11-28T09:01:39.574Z,4.53
2022-11-28T09:04:07.573Z,4.17
2022-11-28T09:06:36.754Z,4.20
2022-11-28T09:09:04.563Z,3.73
2022-11-28T09:11:33.828Z,3.87
2022-11-28T09:14:01.655Z,4.33
2022-11-28T09:16:29.700Z,3.50
2022-11-28T09:18:59.124Z,4.97
2022-11-28T09:21:27.060Z,5.63
2022-11-28T09:23:56.261Z,9.07
2022-11-28T09:26:25.851Z,6.23
2022-11-28T09:28:54.055Z,6.17
2022-11-28T09:31:22.787Z,8.53
2022-11-28T09:33:50.772Z,8.03
2022-11-28T09:36:21.970Z,7.13
2022-11-28T09:38:50.915Z,7.33
2022-11-28T09:41:39.906Z,6.57
2022-11-28T09:44:25.273Z,5.80
2022-11-28T09:46:58.558Z,6.70
2022-11-28T09:49:56.208Z,4.95
2022-11-28T09:52:57.818Z,4.43
2022-11-28T09:55:43.514Z,3.57
2022-11-28T09:58:33.531Z,3.77
2022-11-28T10:01:19.756Z,3.23
2022-11-28T10:04:25.398Z,3.47
2022-11-28T10:06:58.833Z,3.40
2022-11-28T10:09:43.157Z,5.13
2022-11-28T10:12:52.957Z,4.50
2022-11-28T10:15:42.047Z,3.87
2022-11-28T10:18:30.865Z,4.50
2022-11-28T10:21:10.291Z,3.10
2022-11-28T10:23:45.707Z,4.00
2022-11-28T10:26:36.204Z,4.30
2022-11-28T10:29:29.451Z,3.40
2022-11-28T10:32:03.839Z,4.50
2022-11-28T10:34:32.970Z,5.07
2022-11-28T10:37:31.052Z,6.60
2022-11-28T10:40:20.914Z,5.63
2022-11-28T10:43:30.641Z,6.07
2022-11-28T10:46:30.148Z,5.40
2022-11-28T10:49:24.371Z,8.13
2022-11-28T10:52:04.136Z,6.05
2022-11-28T10:54:56.918Z,5.97
2022-11-28T10:57:52.478Z,7.93
2022-11-28T11:00:20.985Z,6.63
2022-11-28T11:02:57.908Z,6.53
2022-11-28T11:05:28.433Z,5.90
2022-11-28T11:08:20.139Z,6.00
2022-11-28T11:11:13.680Z,7.87
2022-11-28T11:14:01.592Z,6.50
2022-11-28T11:16:58.632Z,9.13
2022-11-28T11:19:34.068Z,6.67
2022-11-28T11:22:28.359Z,8.00
2022-11-28T11:25:31.387Z,8.55
2022-11-28T11:28:03.565Z,8.07
2022-11-28T11:30:38.697Z,7.80
2022-11-28T11:33:13.938Z,6.80
2022-11-28T11:35:48.817Z,7.47
2022-11-28T11:38:37.818Z,8.10
2022-11-28T11:41:30.481Z,7.77
2022-11-28T11:44:34.519Z,7.03
2022-11-28T11:47:07.535Z,7.43
2022-11-28T11:49:48.558Z,6.50
2022-11-28T11:52:24.344Z,8.07
2022-11-28T11:55:01.348Z,8.27
2022-11-28T11:57:43.184Z,9.10
2022-11-28T12:00:19.520Z,10.27
2022-11-28T12:02:53.674Z,9.00
2022-11-28T12:05:38.221Z,7.77
2022-11-28T12:08:52.624Z,8.70
2022-11-28T12:11:29.733Z,7.53
2022-11-28T12:14:35.585Z,7.23
2022-11-28T12:17:25.637Z,7.60
2022-11-28T12:20:22.235Z,7.67
2022-11-28T12:23:02.415Z,7.90
2022-11-28T12:25:35.720Z,8.30
2022-11-28T12:28:45.891Z,7.43
2022-11-28T12:31:46.379Z,8.47
2022-11-28T12:34:37.655Z,8.83
2022-11-28T12:38:11.428Z,7.53
2022-11-28T12:41:09.396Z,7.17
2022-11-28T12:43:55.419Z,8.07
2022-11-28T12:46:51.038Z,6.87
2022-11-28T12:49:52.200Z,7.73
2022-11-28T12:52:56.603Z,8.50
2022-11-28T12:55:54.165Z,7.57
2022-11-28T12:58:39.306Z,7.77
2022-11-28T13:01:45.170Z,8.57
2022-11-28T13:04:44.016Z,7.37
2022-11-28T13:07:54.877Z,8.40
2022-11-28T13:10:50.649Z,9.30
2022-11-28T13:13:25.719Z,8.10
2022-11-28T13:16:04.114Z,8.83
2022-11-28T13:18:40.083Z,8.47
2022-11-28T13:21:31.500Z,9.07
2022-11-28T13:24:31.988Z,9.17
2022-11-28T13:27:58.724Z,8.73
2022-11-28T13:30:31.298Z,8.87
2022-11-28T13:33:29.601Z,9.80
2022-11-28T13:35:59.987Z,10.53
2022-11-28T13:39:11.630Z,9.83
2022-11-28T13:42:43.854Z,9.20
2022-11-28T13:45:22.800Z,9.17
2022-11-28T13:47:55.757Z,9.63
2022-11-28T13:50:23.517Z,8.47
2022-11-28T13:53:12.637Z,9.93
2022-11-28T13:55:46.770Z,8.53
2022-11-28T13:58:33.104Z,6.87
2022-11-28T14:01:11.865Z,8.17
2022-11-28T14:03:57.933Z,7.68
2022-11-28T14:06:28.343Z,7.03
2022-11-28T14:09:44.816Z,5.90
2022-11-28T14:12:21.798Z,6.43
2022-11-28T14:15:02.730Z,7.37
2022-11-28T14:17:51.362Z,6.93
2022-11-28T14:20:40.307Z,7.67
2022-11-28T14:23:47.241Z,7.27
2022-11-28T14:26:34.815Z,6.70
2022-11-28T14:29:07.351Z,7.30
2022-11-28T14:31:39.947Z,7.13
2022-11-28T14:34:48.716Z,6.77
2022-11-28T14:37:27.475Z,5.83
2022-11-28T14:39:57.554Z,6.57
2022-11-28T14:42:58.376Z,6.00
2022-11-28T14:45:44.918Z,6.00
2022-11-28T14:48:21.905Z,6.40
2022-11-28T14:51:00.957Z,8.00
2022-11-28T14:53:48.849Z,8.17
2022-11-28T14:56:16.478Z,9.47
2022-11-28T14:58:55.209Z,9.20
2022-11-28T15:02:16.089Z,9.60
2022-11-28T15:05:21.069Z,9.17
2022-11-28T15:11:07.279Z,8.68
2022-11-28T15:13:58.654Z,9.13
2022-11-28T15:16:31.605Z,9.50
2022-11-28T15:19:07.179Z,9.07
2022-11-28T15:21:47.386Z,9.03
2022-11-28T15:24:29.784Z,9.47
2022-11-28T15:27:07.865Z,9.23
2022-11-28T15:29:36.938Z,9.87
2022-11-28T15:32:05.726Z,9.50
2022-11-28T15:34:37.862Z,9.33
2022-11-28T15:37:16.555Z,9.57
2022-11-28T15:39:49.251Z,10.33
2022-11-28T15:42:33.132Z,9.68
2022-11-28T15:45:16.486Z,10.18
2022-11-28T15:47:46.726Z,9.07
2022-11-28T15:50:28.490Z,10.20
2022-11-28T15:53:18.491Z,9.37
2022-11-28T15:55:46.968Z,10.10
2022-11-28T15:58:31.270Z,10.23
2022-11-28T16:01:08.526Z,10.93
2022-11-28T16:04:07.461Z,8.93
2022-11-28T16:06:38.888Z,9.47
2022-11-28T16:09:20.129Z,9.77
2022-11-28T16:11:53.622Z,11.00
2022-11-28T16:14:42.823Z,10.35
2022-11-28T16:17:31.781Z,10.10
2022-11-28T16:20:01.779Z,10.20
2022-11-28T16:22:38.651Z,13.97
2022-11-28T16:25:24.739Z,15.40
2022-11-28T16:27:53.403Z,14.93
2022-11-28T16:30:37.245Z,15.37
2022-11-28T16:33:37.333Z,13.32
2022-11-28T16:36:23.393Z,13.83
2022-11-28T16:39:03.524Z,11.77
2022-11-28T16:41:32.195Z,14.90
2022-11-28T16:44:05.269Z,11.97
2022-11-28T16:46:39.274Z,12.77
2022-11-28T16:51:47.798Z,69.33
2022-11-28T16:54:32.142Z,39.43
2022-11-28T16:57:16.870Z,22.30
2022-11-28T16:59:45.694Z,23.77
2022-11-28T17:02:23.208Z,17.73
2022-11-28T17:04:52.849Z,25.40
2022-11-28T17:07:23.932Z,28.20
2022-11-28T17:09:51.733Z,43.13
2022-11-28T17:12:24.940Z,61.63
2022-11-28T17:14:53.588Z,28.77
2022-11-28T17:17:25.872Z,28.23
2022-11-28T17:19:53.699Z,30.33
2022-11-28T17:22:40.442Z,41.97
2022-11-28T17:25:19.239Z,49.73
2022-11-28T17:27:48.350Z,22.83
2022-11-28T17:30:19.153Z,14.77
2022-11-28T17:32:51.967Z,13.20
2022-11-28T17:35:24.458Z,12.27
2022-11-28T17:37:52.223Z,11.70
2022-11-28T17:40:49.228Z,11.80
2022-11-28T17:43:21.823Z,13.57
2022-11-28T17:45:50.787Z,16.70
2022-11-28T17:48:19.606Z,14.47
2022-11-28T17:50:49.582Z,14.47
2022-11-28T17:53:20.213Z,13.50
2022-11-28T17:55:52.168Z,14.30
2022-11-28T17:58:26.672Z,14.23
2022-11-28T18:01:00.410Z,14.43
2022-11-28T18:03:30.071Z,17.77
2022-11-28T18:05:57.875Z,27.93
2022-11-28T18:08:25.987Z,51.13
2022-11-28T18:11:10.038Z,45.47
2022-11-28T18:13:42.415Z,20.90
2022-11-28T18:16:12.385Z,19.23
2022-11-28T18:18:40.661Z,17.63
2022-11-28T18:21:10.697Z,14.20
2022-11-28T18:23:41.089Z,15.47
2022-11-28T18:26:18.310Z,13.00
2022-11-28T18:28:47.298Z,12.77
2022-11-28T18:31:19.782Z,15.33
2022-11-28T18:33:47.995Z,12.67
2022-11-28T18:36:25.255Z,12.70
2022-11-28T18:39:15.827Z,13.03
2022-11-28T18:41:45.480Z,9.40
2022-11-28T18:44:13.313Z,11.63
2022-11-28T18:46:41.178Z,13.40
2022-11-28T18:49:12.422Z,12.70
2022-11-28T18:51:40.250Z,10.97
2022-11-28T18:54:10.156Z,9.60
2022-11-28T18:56:37.982Z,10.33
2022-11-28T18:59:06.719Z,10.80
2022-11-28T19:01:35.639Z,10.03
2022-11-28T19:04:12.082Z,8.87
2022-11-28T19:06:41.163Z,14.20
2022-11-28T19:09:13.137Z,10.47
2022-11-28T19:11:41.963Z,11.17
2022-11-28T19:14:16.572Z,25.13
2022-11-28T19:16:45.214Z,28.40
2022-11-28T19:19:17.858Z,12.83
2022-11-28T19:21:46.127Z,39.13
2022-11-28T19:24:15.212Z,19.47
2022-11-28T19:26:43.481Z,21.17
2022-11-28T19:29:12.707Z,11.57
2022-11-28T19:31:42.274Z,11.80
2022-11-28T19:34:17.973Z,13.73
2022-11-28T19:36:51.212Z,13.43
2022-11-28T19:39:25.049Z,11.70
2022-11-28T19:41:54.331Z,14.27
2022-11-28T19:44:24.232Z,12.53
2022-11-28T19:46:53.501Z,17.73
2022-11-28T19:49:23.874Z,13.10
2022-11-28T19:51:54.360Z,12.13
2022-11-28T19:54:22.295Z,11.97
2022-11-28T19:56:51.156Z,11.80
2022-11-28T19:59:19.391Z,12.57
2022-11-28T20:01:49.904Z,13.97
2022-11-28T20:04:19.341Z,12.97
2022-11-28T20:06:47.219Z,13.50
2022-11-28T20:09:15.128Z,14.40
2022-11-28T20:11:45.433Z,13.93
2022-11-28T20:14:19.036Z,12.47
2022-11-28T20:16:48.382Z,12.50
2022-11-28T20:19:17.881Z,12.70
2022-11-28T20:21:46.663Z,12.37
2022-11-28T20:24:16.011Z,16.97
2022-11-28T20:26:45.595Z,14.80
2022-11-28T20:29:16.333Z,14.73
2022-11-28T20:31:46.426Z,14.37
2022-11-28T20:34:18.147Z,14.93
2022-11-28T20:36:50.656Z,15.20
2022-11-28T20:39:20.047Z,17.87
2022-11-28T20:41:47.910Z,23.73
2022-11-28T20:44:15.697Z,23.83
2022-11-28T20:46:46.243Z,19.47
2022-11-28T20:49:17.591Z,20.63
2022-11-28T20:51:45.640Z,21.57
2022-11-28T20:54:14.444Z,23.23
2022-11-28T20:57:19.036Z,16.17
2022-11-28T20:59:32.498Z,12.33
2022-11-28T21:02:00.372Z,13.80
2022-11-28T21:04:28.292Z,18.20
2022-11-28T21:06:56.051Z,18.20
2022-11-28T21:09:24.036Z,16.77
2022-11-28T21:11:59.620Z,16.73
2022-11-28T21:14:29.233Z,24.00
2022-11-28T21:16:58.659Z,23.20
2022-11-28T21:19:26.913Z,23.63
2022-11-28T21:21:54.980Z,24.07
2022-11-28T21:24:22.854Z,20.67
2022-11-28T21:26:53.819Z,16.13
2022-11-28T21:29:24.596Z,17.27
2022-11-28T21:31:53.458Z,21.60
2022-11-28T21:34:22.487Z,22.57
2022-11-28T21:36:50.535Z,15.43
2022-11-28T21:39:20.804Z,14.00
2022-11-28T21:41:48.996Z,14.10
2022-11-28T21:44:16.964Z,15.80
2022-11-28T21:46:46.573Z,20.60
2022-11-28T21:49:14.458Z,22.70
2022-11-28T21:51:42.322Z,29.50
2022-11-28T21:54:13.438Z,33.57
2022-11-28T21:56:41.960Z,29.50
2022-11-28T21:59:09.759Z,24.20
2022-11-28T22:01:37.789Z,17.57
2022-11-28T22:04:06.514Z,16.50
2022-11-28T22:06:34.353Z,15.63
2022-11-28T22:09:09.005Z,17.07
2022-11-28T22:11:39.023Z,18.10
2022-11-28T22:14:07.388Z,19.47
2022-11-28T22:16:35.202Z,38.63
2022-11-28T22:19:04.261Z,37.57
2022-11-28T22:24:21.289Z,21.30
2022-11-28T22:26:50.045Z,17.97
2022-11-28T22:29:19.352Z,20.90
2022-11-28T22:31:47.264Z,15.83
2022-11-28T22:34:15.610Z,12.93
2022-11-28T22:36:43.875Z,12.50
2022-11-28T22:39:11.974Z,12.47
2022-11-28T22:41:39.987Z,11.80
2022-11-28T22:44:10.141Z,11.60
2022-11-28T22:46:38.113Z,12.23
2022-11-28T22:49:07.559Z,12.27
2022-11-28T22:51:35.977Z,13.03
2022-11-28T22:54:04.806Z,12.07
2022-11-28T22:56:34.254Z,12.43
2022-11-28T22:59:05.005Z,12.13
2022-11-28T23:01:34.225Z,11.87
2022-11-28T23:04:02.615Z,13.43
2022-11-28T23:06:33.696Z,12.77
2022-11-28T23:09:05.884Z,12.33
2022-11-28T23:11:37.684Z,12.20
2022-11-28T23:14:06.963Z,12.90
2022-11-28T23:16:39.539Z,13.73
2022-11-28T23:19:13.355Z,12.73
2022-11-28T23:21:44.281Z,11.23
2022-11-28T23:24:19.631Z,13.33
2022-11-28T23:26:48.552Z,12.83
2022-11-28T23:29:17.430Z,13.07
2022-11-28T23:31:47.150Z,13.63
2022-11-28T23:34:16.095Z,13.87
2022-11-28T23:36:46.786Z,12.73
2022-11-28T23:39:20.342Z,12.83
2022-11-28T23:41:49.239Z,13.50
2022-11-28T23:44:19.637Z,12.77
2022-11-28T23:46:48.416Z,13.07
2022-11-28T23:49:16.577Z,14.07
2022-11-28T23:51:44.430Z,12.90
2022-11-28T23:54:12.978Z,12.30
2022-11-28T23:56:41.970Z,12.10
2022-11-28T23:59:12.002Z,12.53
